Time;durP1;ratioP1;P1;durP2;ratioP2;P2;SDS_P1;SDS_P2;PMS_P1;PMS_P2;Temp;Humidity;BMP_temperature;BMP_pressure;BME280_temperature;BME280_humidity;BME280_pressure;Samples;Min_cycle;Max_cycle;Signal;HPM_P1;HPM_P2
2022/03/17 00:00:15;;;;;;;31.53;21.30;;;10.20;99.90;;;;;;6208631;23;20067;-36
2022/03/17 00:02:42;;;;;;;31.27;21.37;;;10.20;99.90;;;;;;6207951;23;20368;-36
2022/03/17 00:05:09;;;;;;;31.90;20.70;;;10.20;99.90;;;;;;6208148;23;20430;-36
2022/03/17 00:07:36;;;;;;;29.13;20.07;;;10.20;99.90;;;;;;6188660;23;20036;-37
2022/03/17 00:10:07;;;;;;;31.93;21.33;;;10.20;99.90;;;;;;6208146;23;20486;-36
2022/03/17 00:12:33;;;;;;;31.70;21.30;;;10.10;99.90;;;;;;6208565;23;20471;-36
2022/03/17 00:14:59;;;;;;;32.00;22.40;;;10.20;99.90;;;;;;6208276;23;20401;-37
2022/03/17 00:17:26;;;;;;;30.23;20.77;;;10.20;99.90;;;;;;6188589;23;20016;-34
2022/03/17 00:19:53;;;;;;;33.60;21.77;;;10.10;99.90;;;;;;6209054;23;20206;-35
2022/03/17 00:22:19;;;;;;;36.47;21.73;;;10.20;99.90;;;;;;6205606;23;20052;-36
2022/03/17 00:24:46;;;;;;;30.53;21.60;;;10.10;99.90;;;;;;6206017;23;20052;-35
2022/03/17 00:27:12;;;;;;;38.50;22.63;;;10.10;99.90;;;;;;6187874;23;20021;-36
2022/03/17 00:29:38;;;;;;;30.10;21.83;;;10.10;99.90;;;;;;6206566;23;20340;-37
2022/03/17 00:32:05;;;;;;;31.47;21.27;;;10.10;99.90;;;;;;6207854;23;20013;-35
2022/03/17 00:34:31;;;;;;;31.13;21.53;;;10.10;99.90;;;;;;6208193;23;20012;-36
2022/03/17 00:36:57;;;;;;;32.37;22.23;;;10.10;99.90;;;;;;6189636;23;20325;-36
2022/03/17 00:39:23;;;;;;;30.97;21.03;;;10.10;99.90;;;;;;6207497;23;20531;-35
2022/03/17 00:41:49;;;;;;;30.83;21.00;;;10.10;99.90;;;;;;6182713;23;20436;-37
2022/03/17 00:44:15;;;;;;;32.83;22.67;;;10.10;99.90;;;;;;6207065;23;20078;-37
2022/03/17 00:46:41;;;;;;;33.00;22.43;;;10.10;99.90;;;;;;6189712;23;20074;-36
2022/03/17 00:49:07;;;;;;;32.70;22.10;;;10.00;99.90;;;;;;6204877;23;20025;-33
2022/03/17 00:51:33;;;;;;;31.07;22.53;;;10.00;99.90;;;;;;6208673;23;20031;-36
2022/03/17 00:53:59;;;;;;;32.87;21.90;;;10.10;99.90;;;;;;6207097;23;20388;-34
2022/03/17 01:07:27;;;;;;;34.60;22.83;;;10.00;99.90;;;;;;6183666;23;20157;-36
2022/03/17 01:09:53;;;;;;;31.17;22.27;;;10.10;99.90;;;;;;6205372;23;20065;-37
2022/03/17 01:12:20;;;;;;;34.50;22.93;;;10.00;99.90;;;;;;6207647;23;20017;-36
2022/03/17 01:14:47;;;;;;;36.33;23.60;;;10.00;99.90;;;;;;6207835;23;20096;-37
2022/03/17 01:17:13;;;;;;;33.63;23.53;;;10.00;99.90;;;;;;6187149;23;20021;-36
2022/03/17 01:19:38;;;;;;;34.10;22.53;;;10.00;99.90;;;;;;6180354;23;20028;-36
2022/03/17 01:22:04;;;;;;;37.53;23.97;;;10.00;99.90;;;;;;6206724;23;20027;-39
2022/03/17 01:24:30;;;;;;;33.47;23.17;;;10.00;99.90;;;;;;6208096;23;20013;-36
2022/03/17 01:26:55;;;;;;;32.83;23.47;;;10.00;99.90;;;;;;6188004;23;20542;-35
2022/03/17 01:29:21;;;;;;;33.60;22.27;;;10.00;99.90;;;;;;6205736;23;20349;-36
2022/03/17 01:31:47;;;;;;;33.77;23.10;;;10.00;99.90;;;;;;6208474;23;20064;-36
2022/03/17 01:34:12;;;;;;;38.30;24.97;;;10.00;99.90;;;;;;6206521;23;20035;-37
2022/03/17 01:36:38;;;;;;;36.67;23.67;;;10.00;99.90;;;;;;6191627;23;20684;-35
2022/03/17 01:39:04;;;;;;;34.50;23.17;;;10.00;99.90;;;;;;6205464;23;20482;-38
2022/03/17 01:41:30;;;;;;;35.87;23.33;;;10.00;99.90;;;;;;6207555;23;20013;-37
2022/03/17 01:43:55;;;;;;;33.00;23.57;;;10.00;99.90;;;;;;6207150;23;20025;-35
2022/03/17 01:46:21;;;;;;;35.30;23.50;;;10.00;99.90;;;;;;6194889;23;20031;-37
2022/03/17 01:48:47;;;;;;;34.60;22.57;;;9.90;99.90;;;;;;6203621;23;20021;-37
2022/03/17 01:51:13;;;;;;;31.50;22.90;;;10.00;99.90;;;;;;6207536;23;20027;-37
2022/03/17 01:53:38;;;;;;;34.90;24.83;;;9.90;99.90;;;;;;6204957;23;20028;-37
2022/03/17 01:56:04;;;;;;;36.47;23.40;;;9.90;99.90;;;;;;6204869;23;20028;-36
2022/03/17 01:58:31;;;;;;;36.27;23.93;;;9.90;99.90;;;;;;6185924;23;20615;-38
2022/03/17 02:00:57;;;;;;;35.20;23.13;;;9.90;99.90;;;;;;6207532;23;20024;-36
2022/03/17 02:03:27;;;;;;;34.97;23.93;;;9.90;99.90;;;;;;6205095;23;20500;-38
2022/03/17 02:05:53;;;;;;;34.73;23.97;;;9.90;99.90;;;;;;6208356;23;20023;-36
2022/03/17 02:08:19;;;;;;;33.10;23.90;;;9.90;99.90;;;;;;6188062;23;20430;-37
2022/03/17 02:13:29;;;;;;;34.17;23.87;;;9.80;99.90;;;;;;6205160;23;20020;-37
2022/03/17 02:15:56;;;;;;;32.47;23.10;;;9.90;99.90;;;;;;6207162;23;20017;-36
2022/03/17 02:18:23;;;;;;;37.57;24.37;;;9.90;99.90;;;;;;6188583;23;20364;-36
2022/03/17 02:20:49;;;;;;;32.27;23.93;;;9.90;99.90;;;;;;6208062;23;20016;-35
2022/03/17 02:26:02;;;;;;;35.53;23.77;;;9.90;99.90;;;;;;6207241;23;20047;-34
2022/03/17 02:28:30;;;;;;;36.73;25.07;;;9.90;99.90;;;;;;6187961;23;20689;-37
2022/03/17 02:30:56;;;;;;;36.77;25.73;;;9.90;99.90;;;;;;6207060;23;20659;-34
2022/03/17 02:33:23;;;;;;;34.63;25.53;;;9.90;99.90;;;;;;6206908;23;20032;-35
2022/03/17 02:35:49;;;;;;;33.87;24.47;;;10.00;99.90;;;;;;6205684;23;20021;-36
2022/03/17 02:38:16;;;;;;;38.63;25.50;;;10.10;99.90;;;;;;6187820;23;20024;-36
2022/03/17 02:40:45;;;;;;;34.87;24.27;;;9.90;99.90;;;;;;6207085;23;20056;-37
2022/03/17 02:43:14;;;;;;;38.07;24.10;;;9.90;99.90;;;;;;6206751;23;20020;-37
2022/03/17 02:45:41;;;;;;;36.73;24.97;;;9.90;99.90;;;;;;6205581;23;20032;-35
2022/03/17 02:48:07;;;;;;;35.70;25.93;;;10.00;99.90;;;;;;6187512;23;20027;-34
2022/03/17 02:50:34;;;;;;;35.33;24.87;;;10.00;99.90;;;;;;6205605;23;20531;-36
2022/03/17 02:53:05;;;;;;;36.47;25.83;;;10.00;99.90;;;;;;6206329;23;20075;-36
2022/03/17 02:55:35;;;;;;;35.90;26.23;;;10.10;99.90;;;;;;6205218;23;20080;-36
2022/03/17 02:58:01;;;;;;;36.27;25.77;;;10.00;99.90;;;;;;6185646;23;20016;-37
2022/03/17 03:00:27;;;;;;;37.33;26.10;;;10.00;99.90;;;;;;6206930;23;20013;-36
2022/03/17 03:02:53;;;;;;;36.73;26.30;;;10.10;99.90;;;;;;6206657;23;20027;-36
2022/03/17 03:05:19;;;;;;;37.70;26.30;;;10.10;99.90;;;;;;6207169;23;20100;-37
2022/03/17 03:07:44;;;;;;;37.27;25.77;;;10.10;99.90;;;;;;6187206;23;20028;-36
2022/03/17 03:10:10;;;;;;;36.07;24.70;;;10.10;99.90;;;;;;6206922;23;20013;-36
2022/03/17 03:12:37;;;;;;;34.37;24.93;;;10.20;99.90;;;;;;6204515;23;20487;-37
2022/03/17 03:15:03;;;;;;;36.37;25.10;;;10.20;99.90;;;;;;6206701;23;20017;-36
2022/03/17 03:17:29;;;;;;;36.60;26.77;;;10.20;99.90;;;;;;6187478;23;20020;-37
2022/03/17 03:19:55;;;;;;;34.83;24.93;;;10.20;99.90;;;;;;6207063;23;20505;-37
2022/03/17 03:22:21;;;;;;;34.63;25.37;;;10.20;99.90;;;;;;6206625;23;20024;-36
2022/03/17 03:24:47;;;;;;;38.47;25.80;;;10.20;99.90;;;;;;6207887;23;20024;-36
2022/03/17 03:27:14;;;;;;;34.70;25.70;;;10.20;99.90;;;;;;6189740;23;20112;-35
2022/03/17 03:29:40;;;;;;;36.47;26.60;;;10.20;99.90;;;;;;6208433;23;20032;-36
2022/03/17 03:32:06;;;;;;;36.53;26.57;;;10.20;99.90;;;;;;6206644;23;20335;-36
2022/03/17 03:34:33;;;;;;;38.93;26.03;;;10.20;99.90;;;;;;6209237;23;20013;-34
2022/03/17 03:39:43;;;;;;;37.20;27.83;;;10.20;99.90;;;;;;6206980;23;20704;-36
2022/03/17 03:42:10;;;;;;;37.47;26.10;;;10.30;99.90;;;;;;6208158;23;20440;-34
2022/03/17 03:44:37;;;;;;;36.63;26.77;;;10.30;99.90;;;;;;6208998;23;20074;-37
2022/03/17 03:47:04;;;;;;;36.97;26.73;;;10.30;99.90;;;;;;6190654;23;20171;-36
2022/03/17 03:49:30;;;;;;;36.77;26.83;;;10.30;99.90;;;;;;6207733;23;20116;-36
2022/03/17 03:51:55;;;;;;;38.70;27.07;;;10.30;99.90;;;;;;6207119;23;20624;-36
2022/03/17 03:54:21;;;;;;;38.80;27.97;;;10.30;99.90;;;;;;6208095;23;20483;-36
2022/03/17 03:56:49;;;;;;;37.40;27.63;;;10.30;99.90;;;;;;6190601;23;20451;-36
2022/03/17 03:59:19;;;;;;;39.93;29.17;;;10.30;99.90;;;;;;6179742;23;20027;-36
2022/03/17 04:01:46;;;;;;;40.53;29.67;;;10.30;99.90;;;;;;6208349;23;20444;-35
2022/03/17 04:04:16;;;;;;;38.60;28.97;;;10.20;99.90;;;;;;6207582;23;20032;-35
2022/03/17 04:06:44;;;;;;;41.27;29.70;;;10.20;99.90;;;;;;6192412;23;20024;-32
2022/03/17 04:09:10;;;;;;;43.80;30.33;;;10.10;99.90;;;;;;6206196;23;20055;-33
2022/03/17 04:11:36;;;;;;;42.63;30.70;;;10.10;99.90;;;;;;6207137;23;20079;-36
2022/03/17 04:14:01;;;;;;;43.07;31.90;;;10.00;99.90;;;;;;6207547;23;20039;-36
2022/03/17 04:16:27;;;;;;;41.58;31.45;;;10.00;99.90;;;;;;6193541;23;20055;-36
2022/03/17 04:18:53;;;;;;;41.87;30.70;;;10.00;99.90;;;;;;6204162;23;20073;-36
2022/03/17 04:21:18;;;;;;;47.20;33.97;;;9.90;99.90;;;;;;6209078;23;20039;-34
2022/03/17 04:23:44;;;;;;;46.70;33.40;;;9.90;99.90;;;;;;6207443;23;20078;-35
2022/03/17 04:26:09;;;;;;;49.43;35.43;;;9.80;99.90;;;;;;6196848;23;20059;-36
2022/03/17 04:28:35;;;;;;;52.87;36.53;;;9.80;99.90;;;;;;6195951;23;20036;-35
2022/03/17 04:31:01;;;;;;;48.57;34.60;;;9.70;99.90;;;;;;6207914;23;20025;-35
2022/03/17 04:33:26;;;;;;;50.93;35.77;;;9.70;99.90;;;;;;6205466;23;20028;-34
2022/03/17 04:35:52;;;;;;;50.90;36.40;;;9.70;99.90;;;;;;6208622;23;20075;-36
2022/03/17 04:38:18;;;;;;;53.23;36.13;;;9.70;99.90;;;;;;6189331;23;20021;-34
2022/03/17 04:40:49;;;;;;;54.63;37.90;;;9.70;99.90;;;;;;6206520;23;20020;-34
2022/03/17 04:43:18;;;;;;;56.65;39.65;;;9.60;99.90;;;;;;6207893;23;20029;-37
2022/03/17 04:45:45;;;;;;;56.07;38.77;;;9.60;99.90;;;;;;6207932;23;20645;-36
2022/03/17 04:48:11;;;;;;;59.37;41.83;;;9.70;99.90;;;;;;6188771;23;20659;-35
2022/03/17 04:50:37;;;;;;;63.43;42.10;;;9.60;99.90;;;;;;6208463;23;20348;-34
2022/03/17 04:55:46;;;;;;;63.03;42.53;;;9.50;99.90;;;;;;6208450;23;20132;-34
2022/03/17 04:58:13;;;;;;;62.63;43.23;;;9.50;99.90;;;;;;6188049;23;20962;-35
2022/03/17 05:00:41;;;;;;;62.23;43.50;;;9.50;99.90;;;;;;6207097;23;20103;-32
2022/03/17 05:03:08;;;;;;;61.13;41.40;;;9.50;99.90;;;;;;6206061;23;20032;-34
2022/03/17 05:05:33;;;;;;;46.83;31.07;;;9.50;99.90;;;;;;6206910;23;20123;-32
2022/03/17 05:07:59;;;;;;;34.50;23.13;;;9.50;99.90;;;;;;6188162;23;20086;-34
2022/03/17 05:10:25;;;;;;;22.23;15.93;;;9.50;99.90;;;;;;6208193;23;20419;-34
2022/03/17 05:12:50;;;;;;;16.63;12.27;;;9.50;99.90;;;;;;6208137;23;20020;-33
2022/03/17 05:15:16;;;;;;;14.40;10.17;;;9.40;99.90;;;;;;6208065;23;20026;-35
2022/03/17 05:17:42;;;;;;;12.07;9.40;;;9.30;99.90;;;;;;6188387;23;20031;-33
2022/03/17 05:20:10;;;;;;;10.57;8.30;;;9.20;99.90;;;;;;6207282;23;20056;-34
2022/03/17 05:22:36;;;;;;;12.10;8.07;;;9.10;99.90;;;;;;6180462;23;20017;-35
2022/03/17 05:25:04;;;;;;;9.83;7.77;;;9.00;99.90;;;;;;6205935;23;20024;-32
2022/03/17 05:27:30;;;;;;;10.47;8.43;;;9.00;99.90;;;;;;6188529;23;20399;-35
2022/03/17 05:29:56;;;;;;;13.00;8.17;;;8.90;99.90;;;;;;6207223;23;20017;-34
2022/03/17 05:32:22;;;;;;;9.70;7.97;;;8.80;99.90;;;;;;6207128;23;20024;-35
2022/03/17 05:34:47;;;;;;;9.60;7.17;;;8.80;99.90;;;;;;6208458;23;20457;-35
2022/03/17 05:37:13;;;;;;;11.97;6.80;;;8.80;99.90;;;;;;6186813;23;20435;-33
2022/03/17 05:39:40;;;;;;;11.33;6.87;;;8.70;99.90;;;;;;6207409;23;20052;-33
2022/03/17 05:42:06;;;;;;;14.63;9.03;;;8.70;99.90;;;;;;6207004;23;20023;-32
2022/03/17 05:44:33;;;;;;;15.53;9.97;;;8.60;99.90;;;;;;6205894;23;20091;-35
2022/03/17 05:46:58;;;;;;;16.77;10.10;;;8.60;99.90;;;;;;6189488;23;20099;-35
2022/03/17 05:49:24;;;;;;;19.90;11.60;;;8.50;99.90;;;;;;6205274;23;20557;-36
2022/03/17 05:51:50;;;;;;;25.03;12.67;;;8.50;99.90;;;;;;6208659;23;20012;-34
2022/03/17 05:54:15;;;;;;;21.60;13.37;;;8.40;99.90;;;;;;6206586;23;20044;-35
2022/03/17 05:56:41;;;;;;;21.80;11.93;;;8.30;99.90;;;;;;6190992;23;20111;-33
2022/03/17 05:59:07;;;;;;;22.63;11.40;;;8.40;99.90;;;;;;6203958;23;20021;-35
2022/03/17 06:01:32;;;;;;;19.10;9.93;;;8.30;99.90;;;;;;6207410;23;20009;-35
2022/03/17 06:03:58;;;;;;;21.47;9.83;;;8.30;99.90;;;;;;6206250;23;20032;-34
2022/03/17 06:06:23;;;;;;;22.67;9.17;;;8.30;99.90;;;;;;6192391;23;20036;-36
2022/03/17 06:08:49;;;;;;;18.77;8.83;;;8.30;99.90;;;;;;6201287;23;20016;-35
2022/03/17 06:11:15;;;;;;;24.13;8.00;;;8.20;99.90;;;;;;6205149;23;20013;-35
2022/03/17 06:13:43;;;;;;;18.97;6.90;;;8.20;99.90;;;;;;6207105;23;20031;-34
2022/03/17 06:16:09;;;;;;;17.20;5.87;;;8.20;99.90;;;;;;6197927;23;20039;-35
2022/03/17 06:18:35;;;;;;;19.03;6.00;;;8.10;99.90;;;;;;6197187;23;20032;-37
2022/03/17 06:21:01;;;;;;;14.93;5.40;;;8.10;99.90;;;;;;6205439;23;20009;-32
2022/03/17 06:23:29;;;;;;;19.10;5.50;;;8.00;99.90;;;;;;6206210;23;20139;-36
2022/03/17 06:25:55;;;;;;;20.07;5.50;;;8.00;99.90;;;;;;6207545;23;20123;-34
2022/03/17 06:28:21;;;;;;;17.50;5.23;;;8.00;99.90;;;;;;6187843;23;20055;-34
2022/03/17 06:30:47;;;;;;;15.03;4.40;;;8.00;99.90;;;;;;6205531;23;20095;-31
2022/03/17 06:33:13;;;;;;;16.80;5.10;;;8.00;99.90;;;;;;6204224;23;20772;-30
2022/03/17 06:35:39;;;;;;;13.67;4.77;;;7.90;99.90;;;;;;6207325;23;20017;-35
2022/03/17 06:38:07;;;;;;;11.10;3.63;;;7.90;99.90;;;;;;6187779;23;20083;-34
2022/03/17 06:40:35;;;;;;;13.13;3.40;;;7.90;99.90;;;;;;6205236;23;20024;-32
2022/03/17 06:43:04;;;;;;;15.87;4.10;;;8.00;99.90;;;;;;6206545;23;20027;-35
2022/03/17 06:45:30;;;;;;;15.77;4.17;;;7.90;99.90;;;;;;6207324;23;20051;-33
2022/03/17 06:47:55;;;;;;;9.77;3.57;;;7.90;99.90;;;;;;6187592;23;20452;-32
2022/03/17 06:50:22;;;;;;;9.93;2.43;;;7.80;99.90;;;;;;6207284;23;20027;-34
2022/03/17 06:52:49;;;;;;;9.93;2.80;;;7.80;99.90;;;;;;6205069;23;20020;-35
2022/03/17 06:55:16;;;;;;;9.93;2.83;;;7.80;99.90;;;;;;6206396;23;20024;-34
2022/03/17 06:57:42;;;;;;;14.10;2.67;;;7.80;99.90;;;;;;6187636;23;20349;-33
2022/03/17 07:00:12;;;;;;;8.70;2.00;;;7.80;99.90;;;;;;6206052;23;20091;-35
2022/03/17 07:02:38;;;;;;;10.20;2.17;;;7.70;99.90;;;;;;6204801;23;20524;-35
2022/03/17 07:05:04;;;;;;;12.50;2.50;;;7.70;99.90;;;;;;6206174;23;20060;-34
2022/03/17 07:07:30;;;;;;;9.57;1.90;;;7.70;99.90;;;;;;6187734;23;20344;-35
2022/03/17 07:09:56;;;;;;;12.57;2.50;;;7.60;99.90;;;;;;6206796;23;20083;-37
2022/03/17 07:12:22;;;;;;;10.90;1.97;;;7.70;99.90;;;;;;6204149;23;20356;-35
2022/03/17 07:14:48;;;;;;;10.93;2.30;;;7.70;99.90;;;;;;6203449;23;20024;-35
2022/03/17 07:17:17;;;;;;;13.60;2.30;;;7.70;99.90;;;;;;6186901;23;20027;-32
2022/03/17 07:19:42;;;;;;;11.70;2.10;;;7.60;99.90;;;;;;6206348;23;20020;-32
2022/03/17 07:22:08;;;;;;;12.83;2.07;;;7.60;99.90;;;;;;6202894;23;20027;-35
2022/03/17 07:24:34;;;;;;;9.30;2.33;;;7.70;99.90;;;;;;6205146;23;20016;-34
2022/03/17 07:26:59;;;;;;;12.27;2.43;;;7.60;99.90;;;;;;6184650;23;20027;-35
2022/03/17 07:29:25;;;;;;;13.67;2.30;;;7.60;99.90;;;;;;6204916;23;20021;-34
2022/03/17 07:31:56;;;;;;;14.30;2.60;;;7.60;99.90;;;;;;6204412;23;20025;-32
2022/03/17 07:34:23;;;;;;;18.50;2.70;;;7.60;99.90;;;;;;6205673;23;20024;-35
2022/03/17 07:36:51;;;;;;;22.40;3.13;;;7.60;99.90;;;;;;6162123;23;20017;-36
2022/03/17 07:39:17;;;;;;;13.03;2.43;;;7.50;99.90;;;;;;6206809;23;20099;-34
2022/03/17 07:41:42;;;;;;;17.03;2.70;;;7.60;99.90;;;;;;6205055;23;20498;-38
2022/03/17 07:44:09;;;;;;;11.83;2.70;;;7.60;99.90;;;;;;6205478;23;20025;-36
2022/03/17 07:46:34;;;;;;;19.20;3.27;;;7.60;99.90;;;;;;6190237;23;20392;-37
2022/03/17 07:49:00;;;;;;;13.63;3.00;;;7.70;99.90;;;;;;6203386;23;20032;-34
2022/03/17 07:51:26;;;;;;;15.97;2.90;;;7.60;99.90;;;;;;6206905;23;20012;-37
2022/03/17 07:53:51;;;;;;;15.17;2.67;;;7.60;99.90;;;;;;6204680;23;20024;-36
2022/03/17 07:56:20;;;;;;;15.47;2.97;;;7.60;99.90;;;;;;6166058;23;20024;-37
2022/03/17 07:58:46;;;;;;;14.50;2.60;;;7.60;99.90;;;;;;6199342;23;20064;-38
2022/03/17 08:01:12;;;;;;;16.07;2.67;;;7.60;99.90;;;;;;6206517;23;20021;-36
2022/03/17 08:03:40;;;;;;;20.30;2.97;;;7.60;99.90;;;;;;6205491;23;20483;-36
2022/03/17 08:06:06;;;;;;;17.60;3.23;;;7.60;99.90;;;;;;6203592;23;20491;-38
2022/03/17 08:08:34;;;;;;;23.13;4.17;;;7.60;99.90;;;;;;6189867;23;20021;-38
2022/03/17 08:11:00;;;;;;;18.20;4.00;;;7.60;99.90;;;;;;6206628;23;20016;-33
2022/03/17 08:13:26;;;;;;;18.80;3.50;;;7.60;99.90;;;;;;6206126;23;20483;-34
2022/03/17 08:15:52;;;;;;;17.43;3.90;;;7.60;99.90;;;;;;6206708;23;20017;-34
2022/03/17 08:18:18;;;;;;;22.37;4.30;;;7.60;99.90;;;;;;6187248;23;20344;-35
2022/03/17 08:20:45;;;;;;;26.07;4.03;;;7.60;99.90;;;;;;6208057;23;20024;-33
2022/03/17 08:23:11;;;;;;;20.97;4.50;;;7.60;99.90;;;;;;6205207;23;20032;-34
2022/03/17 08:25:37;;;;;;;23.40;3.87;;;7.60;99.90;;;;;;6208630;23;20297;-32
2022/03/17 08:28:03;;;;;;;23.90;4.40;;;7.60;99.90;;;;;;6186208;23;20050;-36
2022/03/17 08:30:31;;;;;;;19.73;3.97;;;7.60;99.90;;;;;;6207186;23;20020;-36
2022/03/17 08:32:56;;;;;;;19.47;3.57;;;7.60;99.90;;;;;;6207012;23;20078;-36
2022/03/17 08:35:22;;;;;;;14.43;3.40;;;7.60;99.90;;;;;;6207326;23;20028;-35
2022/03/17 08:37:48;;;;;;;12.70;2.67;;;7.60;99.90;;;;;;6185824;23;20310;-36
2022/03/17 08:40:15;;;;;;;13.30;2.53;;;7.50;99.90;;;;;;6207482;23;20115;-35
2022/03/17 08:42:41;;;;;;;16.53;2.77;;;7.60;99.90;;;;;;6207076;23;20572;-34
2022/03/17 08:50:40;;;;;;;15.13;2.93;;;7.60;99.90;;;;;;6208001;23;20458;-34
2022/03/17 08:53:06;;;;;;;14.60;2.77;;;7.50;99.90;;;;;;6206514;23;20013;-35
2022/03/17 08:55:32;;;;;;;22.23;2.93;;;7.40;99.90;;;;;;6206500;23;20024;-32
2022/03/17 08:57:58;;;;;;;18.03;3.17;;;7.70;99.90;;;;;;6186870;23;20044;-34
2022/03/17 09:00:24;;;;;;;19.47;2.90;;;7.50;99.90;;;;;;6206789;23;20078;-35
2022/03/17 09:02:53;;;;;;;15.03;3.27;;;7.60;99.90;;;;;;6208131;23;20030;-36
2022/03/17 09:05:19;;;;;;;20.63;3.47;;;7.60;99.90;;;;;;6173652;23;20512;-35
2022/03/17 09:07:45;;;;;;;19.70;3.50;;;7.60;99.90;;;;;;6172161;23;20020;-33
2022/03/17 09:10:10;;;;;;;16.23;3.13;;;7.60;99.90;;;;;;6207263;23;20024;-36
2022/03/17 09:12:38;;;;;;;18.57;3.53;;;7.60;99.90;;;;;;6204343;23;20071;-36
2022/03/17 09:15:05;;;;;;;15.87;2.80;;;7.60;99.90;;;;;;6205478;23;20325;-35
2022/03/17 09:17:30;;;;;;;17.63;3.47;;;7.60;99.90;;;;;;6185494;23;20070;-34
2022/03/17 09:19:56;;;;;;;12.67;2.60;;;7.60;99.90;;;;;;6206467;23;20099;-35
2022/03/17 09:22:21;;;;;;;16.90;3.20;;;7.60;99.90;;;;;;6204221;23;20352;-36
2022/03/17 09:24:48;;;;;;;14.87;3.20;;;7.70;99.90;;;;;;6206950;23;20021;-35
2022/03/17 09:27:17;;;;;;;13.60;2.60;;;7.70;99.90;;;;;;6186988;23;20032;-35
2022/03/17 09:29:43;;;;;;;17.27;2.73;;;7.70;99.90;;;;;;6206705;23;20024;-35
2022/03/17 09:32:13;;;;;;;12.53;2.70;;;7.80;99.90;;;;;;6205939;23;20336;-35
2022/03/17 09:34:39;;;;;;;21.27;3.57;;;7.90;99.90;;;;;;6207008;23;20326;-35
2022/03/17 09:37:04;;;;;;;16.93;2.53;;;7.90;99.90;;;;;;6187177;23;20051;-34
2022/03/17 09:39:42;;;;;;;16.37;3.20;;;7.90;99.90;;;;;;6206482;23;20074;-34
2022/03/17 09:42:07;;;;;;;23.10;3.60;;;8.00;99.90;;;;;;6205966;23;20479;-36
2022/03/17 09:44:33;;;;;;;18.37;3.50;;;7.90;99.90;;;;;;6206474;23;20016;-35
2022/03/17 09:47:02;;;;;;;17.10;3.50;;;8.10;99.90;;;;;;6185696;23;20400;-34
2022/03/17 09:49:29;;;;;;;17.00;3.10;;;8.10;99.90;;;;;;6205677;23;20200;-35
2022/03/17 09:51:57;;;;;;;19.80;3.50;;;8.20;99.90;;;;;;6204960;23;20017;-35
2022/03/17 09:54:23;;;;;;;17.03;3.47;;;8.20;99.90;;;;;;6205843;23;20551;-35
2022/03/17 09:56:49;;;;;;;17.13;3.23;;;8.40;99.90;;;;;;6188285;23;20023;-36
2022/03/17 09:59:15;;;;;;;13.83;3.17;;;8.30;99.90;;;;;;6204955;23;20104;-35
2022/03/17 10:01:41;;;;;;;15.53;2.60;;;8.40;99.90;;;;;;6204425;23;20031;-33
2022/03/17 10:04:07;;;;;;;13.20;3.03;;;8.30;99.90;;;;;;6205285;23;20017;-35
2022/03/17 10:06:34;;;;;;;18.30;3.00;;;8.40;99.90;;;;;;6187951;23;20343;-32
2022/03/17 10:09:00;;;;;;;14.00;3.07;;;8.50;99.90;;;;;;6200914;23;20034;-35
2022/03/17 10:11:31;;;;;;;12.60;2.60;;;8.60;99.90;;;;;;6206898;23;20017;-35
2022/03/17 10:13:59;;;;;;;13.40;3.50;;;8.60;99.90;;;;;;6205367;23;20168;-32
2022/03/17 10:16:27;;;;;;;17.20;3.00;;;8.70;99.90;;;;;;6189123;23;20020;-34
2022/03/17 10:19:03;;;;;;;13.80;2.60;;;8.70;99.90;;;;;;6201972;23;20149;-35
2022/03/17 10:21:29;;;;;;;15.83;2.80;;;8.80;99.90;;;;;;6205985;23;20021;-34
2022/03/17 10:24:07;;;;;;;16.07;3.03;;;8.90;99.90;;;;;;6205260;23;20017;-35
2022/03/17 10:26:42;;;;;;;13.70;2.63;;;8.90;99.90;;;;;;6189575;23;20589;-36
2022/03/17 10:29:15;;;;;;;15.57;2.67;;;8.90;99.90;;;;;;6200831;23;20052;-35
2022/03/17 10:32:09;;;;;;;14.07;3.20;;;8.90;99.90;;;;;;6206392;23;20066;-34
2022/03/17 10:34:47;;;;;;;17.10;3.07;;;8.90;99.90;;;;;;6205424;23;20060;-36
2022/03/17 10:37:19;;;;;;;17.53;2.93;;;9.00;99.90;;;;;;6186414;23;20699;-36
2022/03/17 10:39:47;;;;;;;16.92;3.42;;;9.00;99.90;;;;;;6206042;23;20021;-35
2022/03/17 10:42:26;;;;;;;20.23;3.30;;;9.00;99.90;;;;;;6203051;23;20103;-35
2022/03/17 10:45:07;;;;;;;18.40;3.43;;;9.10;99.90;;;;;;6206267;23;20344;-37
2022/03/17 10:47:38;;;;;;;18.48;3.35;;;9.20;99.90;;;;;;6186448;23;20016;-33
2022/03/17 10:50:19;;;;;;;21.45;3.05;;;9.30;99.90;;;;;;6203650;23;20051;-36
2022/03/17 10:52:55;;;;;;;16.37;3.07;;;9.40;99.90;;;;;;6204243;23;20032;-35
2022/03/17 10:55:29;;;;;;;15.53;3.00;;;9.50;99.90;;;;;;6206094;23;20020;-36
2022/03/17 10:58:31;;;;;;;19.33;3.17;;;9.50;99.90;;;;;;6186749;23;20017;-35
2022/03/17 11:00:56;;;;;;;15.03;2.87;;;9.60;99.90;;;;;;6084110;23;20014;-36
2022/03/17 11:03:23;;;;;;;14.43;3.13;;;9.60;99.90;;;;;;6179457;23;20024;-35
2022/03/17 11:05:53;;;;;;;17.13;3.40;;;9.60;99.90;;;;;;6204023;23;20456;-34
2022/03/17 11:08:20;;;;;;;16.50;3.20;;;9.70;99.90;;;;;;6185410;23;20054;-36
2022/03/17 11:10:46;;;;;;;15.27;3.50;;;9.70;99.90;;;;;;6206076;23;20017;-35
2022/03/17 11:13:11;;;;;;;13.40;3.23;;;9.80;99.90;;;;;;6178280;23;20031;-35
2022/03/17 11:15:41;;;;;;;14.27;2.87;;;9.90;99.90;;;;;;6203444;23;20411;-36
2022/03/17 11:18:12;;;;;;;12.30;2.77;;;10.00;99.90;;;;;;6186149;23;20535;-35
2022/03/17 11:20:38;;;;;;;9.48;2.88;;;10.10;99.90;;;;;;6206254;23;20031;-35
2022/03/17 11:23:09;;;;;;;10.73;2.70;;;10.10;99.90;;;;;;6204250;23;20083;-36
2022/03/17 11:25:35;;;;;;;21.25;3.03;;;10.10;99.90;;;;;;6205434;23;20048;-34
2022/03/17 11:28:03;;;;;;;10.80;2.23;;;10.10;99.90;;;;;;6183485;23;20460;-37
2022/03/17 11:30:43;;;;;;;15.07;3.03;;;10.10;99.90;;;;;;6204261;23;20025;-34
2022/03/17 11:33:48;;;;;;;16.33;2.87;;;10.20;99.90;;;;;;6204929;23;20048;-36
2022/03/17 11:36:23;;;;;;;12.87;3.13;;;10.20;99.90;;;;;;6187428;23;20043;-37
2022/03/17 11:38:55;;;;;;;14.73;3.43;;;10.30;99.90;;;;;;6200389;23;20025;-37
2022/03/17 11:41:23;;;;;;;15.33;3.20;;;10.30;99.90;;;;;;6205809;23;20028;-36
2022/03/17 11:43:49;;;;;;;15.13;3.43;;;10.40;99.90;;;;;;6179171;23;20052;-35
2022/03/17 11:46:17;;;;;;;15.40;2.67;;;10.40;99.90;;;;;;6194629;23;20067;-36
2022/03/17 11:48:51;;;;;;;11.13;2.80;;;10.40;99.90;;;;;;6201496;23;20020;-35
2022/03/17 11:51:17;;;;;;;14.43;2.77;;;10.40;99.90;;;;;;6207834;23;20019;-35
2022/03/17 11:53:52;;;;;;;13.87;2.40;;;10.40;99.90;;;;;;6206878;23;20032;-36
2022/03/17 11:56:37;;;;;;;11.30;2.93;;;10.40;99.90;;;;;;6193623;23;20020;-37
2022/03/17 11:59:05;;;;;;;12.40;2.50;;;10.50;99.90;;;;;;6204240;23;20325;-35
2022/03/17 12:01:39;;;;;;;12.37;2.73;;;10.60;99.90;;;;;;6208138;23;20012;-36
2022/03/17 12:04:06;;;;;;;9.70;2.70;;;10.70;99.90;;;;;;6205207;23;20033;-36
2022/03/17 12:06:39;;;;;;;9.13;2.73;;;10.60;99.90;;;;;;6188555;23;20899;-37
2022/03/17 12:09:09;;;;;;;12.80;3.07;;;10.70;99.90;;;;;;6202309;23;20024;-36
2022/03/17 12:11:46;;;;;;;17.10;3.13;;;10.70;99.90;;;;;;6207807;23;20024;-37
2022/03/17 12:14:18;;;;;;;13.43;3.10;;;10.70;99.90;;;;;;6206449;23;20020;-34
2022/03/17 12:16:48;;;;;;;14.85;3.08;;;10.90;99.90;;;;;;6189195;23;20035;-36
2022/03/17 12:19:35;;;;;;;17.08;2.35;;;10.80;99.90;;;;;;6205824;23;20032;-36
2022/03/17 12:22:01;;;;;;;10.95;2.53;;;10.80;99.90;;;;;;6207580;23;20022;-36
2022/03/17 12:24:52;;;;;;;9.98;2.28;;;10.80;99.90;;;;;;6206237;23;20106;-36
2022/03/17 12:27:23;;;;;;;16.60;2.70;;;10.90;99.90;;;;;;6188285;23;20345;-36
2022/03/17 12:29:59;;;;;;;;;;;10.90;99.90;;;;;;6207745;23;20293;-35
2022/03/17 12:32:27;;;;;;;13.13;2.37;;;10.90;99.90;;;;;;6204440;23;20215;-37
2022/03/17 12:34:55;;;;;;;17.93;3.10;;;11.00;99.90;;;;;;6206154;23;20452;-37
2022/03/17 12:37:23;;;;;;;12.63;2.90;;;11.00;99.90;;;;;;6187587;23;20027;-36
2022/03/17 12:39:51;;;;;;;15.52;2.63;;;11.00;99.90;;;;;;6206761;23;20020;-34
2022/03/17 12:42:23;;;;;;;15.98;3.00;;;11.00;99.90;;;;;;6206088;23;20021;-36
2022/03/17 12:45:11;;;;;;;13.47;3.30;;;11.00;99.90;;;;;;6205855;23;20020;-38
2022/03/17 12:47:39;;;;;;;13.75;2.80;;;11.00;99.90;;;;;;6187902;23;20020;-35
2022/03/17 12:50:13;;;;;;;16.05;2.42;;;11.10;99.90;;;;;;6206479;23;20025;-37
2022/03/17 12:52:41;;;;;;;15.38;3.03;;;11.20;99.90;;;;;;6204418;23;20027;-36
2022/03/17 12:55:09;;;;;;;16.08;3.25;;;11.20;99.90;;;;;;6206434;23;20023;-36
2022/03/17 12:57:39;;;;;;;12.95;2.90;;;11.20;99.90;;;;;;6186657;23;20467;-37
2022/03/17 13:00:10;;;;;;;13.35;2.67;;;11.20;99.90;;;;;;6205075;23;20150;-35
2022/03/17 13:02:36;;;;;;;12.73;2.88;;;11.10;99.90;;;;;;6202489;23;20024;-34
2022/03/17 13:07:48;;;;;;;13.57;2.92;;;11.20;99.90;;;;;;6185491;23;20016;-36
2022/03/17 13:10:24;;;;;;;14.00;2.50;;;11.20;99.90;;;;;;6199457;23;20020;-35
2022/03/17 13:15:35;;;;;;;10.63;2.65;;;11.30;99.90;;;;;;6206041;23;20031;-36